Saturday, January 20, 2018, 10:00 AM EST
Back to Local

KPSM, Pease Air Force Base / Portsmouth

Location: Portsmouth, NH, United States Lat: 43.083
Local Time: 10:00 AM EST (15:00 GMT) Lon: -70.817
Time Zone: US/Eastern Elev: 101 ft

Show me the last for .
Show Decoded

2018-01-20 08:56 METAR KPSM 201356Z 23009KT 10SM SCT170 BKN250 01/M06 A2961 RMK AO2A SLP030
                 T00131058 =
2018-01-20 07:56 METAR KPSM 201256Z 21009KT 10SM BKN150 BKN200 01/M06 A2961 RMK AO2A SLP030
                 T00091060 =
2018-01-20 06:56 METAR KPSM 201156Z 22010KT 10SM FEW110 BKN150 OVC250 00/M06 A2964 RMK AO2A
                 SLP040 4/005 T00031063 10004 21024 56031 =
2018-01-20 05:56 METAR KPSM 201056Z 20007KT 10SM FEW110 BKN140 OVC180 00/M06 A2965 RMK AO2A
                 SLP044 T00011065 =
2018-01-20 04:56 METAR KPSM 200956Z 21009KT 10SM FEW120 BKN150 OVC180 00/M07 A2968 RMK AO2A
                 SLP054 T00001068 =
2018-01-20 03:56 METAR KPSM 200856Z 21005KT 10SM BKN150 OVC180 M01/M07 A2973 RMK AO2A SLP071
                 T10091073 57022 =
2018-01-20 01:56 METAR KPSM 200656Z 21005KT 10SM SCT140 OVC200 M02/M07 A2978 RMK AO2A SLP088
                 T10171068 =
2018-01-20 00:56 METAR KPSM 200556Z 18004KT 10SM FEW040 SCT150 OVC200 M02/M07 A2980 RMK AO2A
                 SLP095 4/005 T10201067 11011 21023 57027 =
2018-01-19 23:56 METAR KPSM 200456Z 20006KT 10SM FEW040 OVC200 M02/M07 A2984 RMK AO2A SLP108
                 T10181067 400001102 =
2018-01-19 22:56 METAR KPSM 200356Z 21006KT 10SM FEW038 SCT180 BKN250 M02/M07 A2986 RMK AO2A
                 SLP115 T10221068 =
2018-01-19 21:56 METAR KPSM 200256Z 22005KT 10SM SCT039 BKN160 OVC200 M01/M06 A2988 RMK AO2A
                 SLP122 T10151065 58005 =
2018-01-19 20:56 METAR KPSM 200156Z 00000KT 10SM OVC038 M01/M06 A2989 RMK AO2A SLP125 T10111065 =
2018-01-19 19:56 METAR KPSM 200056Z 00000KT 10SM OVC036 M01/M06 A2990 RMK AO2A SLP129 T10131065 =
2018-01-19 18:56 METAR KPSM 192356Z 20003KT 10SM OVC037 M01/M06 A2989 RMK AO2A SLP125 4/005
                 T10111065 10000 21012 58003 =
2018-01-19 17:56 METAR KPSM 192256Z 22003KT 10SM OVC036 M01/M06 A2988 RMK AO2A SLP122 T10121064 =
2018-01-19 16:56 METAR KPSM 192156Z 24006KT 10SM OVC031 M01/M06 A2991 RMK AO2A SLP132 T10061064 =
2018-01-19 15:56 METAR KPSM 192056Z 27006KT 10SM OVC036 00/M07 A2990 RMK AO2A SLP129 T10021068
                 53004 =
2018-01-19 14:56 METAR KPSM 191956Z 25003KT 10SM OVC037 00/M07 A2989 RMK AO2A SLP125 T00001068 =
2018-01-19 13:56 METAR KPSM 191856Z 31007KT 10SM OVC037 00/M06 A2988 RMK AO2A SLP122 T10011065 =
2018-01-19 12:56 METAR KPSM 191756Z 26006KT 10SM OVC037 00/M07 A2989 RMK AO2A SLP125 4/006
                 T10051069 10000 21063 57021 =
2018-01-19 11:56 METAR KPSM 191656Z 00000KT 10SM BKN038 M01/M07 A2991 RMK AO2A SLP132 T10121069 =
2018-01-19 10:56 METAR KPSM 191556Z 00000KT 10SM SCT045 M02/M07 A2993 RMK AO2A SLP139 T10181073 =

Support USWX by starting your Amazon purchase here.